• Join FlightAware (Why Join?)
  • Login
  • US Flag 
04:41AM EDT


 

Airport Tracker/Info


-or-


 

Live Flight TrackerFlight Track Log ✈ ASQ5941 ✈ 02-Jul-2013 ✈ KAVP - KORD

Flight Track Log - Related Links

Times and Time Zones

All times are in EDT time to prevent confusion due to time zone crossing. See the ASQ5941 flight status page for this flight to view local times or setup timezone preferences in your user account.

Time Position Orientation Groundspeed Altitude Reporting Facility
EDT Latitude Longitude Course Direction KTS MPH feet Rate Location/Type
05:06PM 41.2758 -75.7869 221° Southwest 191 220 4,400  Level New York Center
05:07PM 41.3832 -75.8664 304° West  Level FlightAware Approximate
05:07PM 41.3200 -75.8289 325° Northwest 251 289 6,500  Level New York Center
05:08PM 41.4340 -75.9513 304° West  Level FlightAware Approximate
05:08PM 41.3872 -75.8147 North 250 288 8,700  Level New York Center
05:09PM 41.4849 -76.0409 315° West  Level FlightAware Approximate
05:09PM 41.4572 -75.7867 17° North 250 288 9,900  Level New York Center
05:10PM 41.5430 -76.1229 312° West  Level FlightAware Approximate
05:10PM 41.5494 -75.8214 344° North 299 344 10,900  Level New York Center
05:11PM 41.5908 -75.9217 299° West 286 329 11,000 540 Climbing New York Center
05:12PM 41.5897 -76.0461 269° West 305 351 12,100 1,560 Climbing New York Center
05:13PM 41.6189 -76.1789 286° West 330 380 14,100 1,920 Climbing New York Center
05:14PM 41.6558 -76.2875 295° West 335 386 15,900 1,500 Climbing New York Center
05:15PM 41.6944 -76.3961 295° West 335 386 17,200 1,200 Climbing New York Center
05:16PM 41.7486 -76.4814 310° West 335 386 18,400 1,200 Climbing New York Center
05:17PM 41.8183 -76.5903 311° West 341 392 19,700 1,200 Climbing New York Center
05:18PM 41.8822 -76.6881 311° West 346 398 20,900 1,140 Climbing New York Center
05:19PM 41.9242 -76.8058 296° West 346 398 22,000 1,080 Climbing New York Center
05:20PM 41.9478 -76.9142 286° West 346 398 23,100 1,020 Climbing New York Center
05:20PM 41.9692 -77.0167 286° West 346 398 23,700 1,080 Climbing Cleveland Center
05:21PM 41.9997 -77.1267 291° West 346 398 24,900 960 Climbing Cleveland Center
05:22PM 42.0264 -77.2539 286° West 351 404 25,700 720 Climbing Cleveland Center
05:23PM 42.0572 -77.3864 287° West 362 417 26,400 1,200 Climbing Cleveland Center
05:24PM 42.1147 -77.5011 304° West 357 411 28,200 1,380 Climbing Cleveland Center
05:25PM 42.1617 -77.6194 298° West 357 411 29,200 960 Climbing Cleveland Center
05:26PM 42.1878 -77.7472 285° West 357 411 30,200 960 Climbing Cleveland Center
05:27PM 42.2158 -77.8747 287° West 357 411 31,200 900 Climbing Cleveland Center
05:28PM 42.2397 -78.0056 284° West 357 411 32,100 960 Climbing Cleveland Center
05:29PM 42.2675 -78.1364 286° West 357 411 33,200 900 Climbing Cleveland Center
05:30PM 42.2933 -78.2703 285° West 357 411 33,900 660 Climbing Cleveland Center
05:31PM 42.3208 -78.4011 286° West 357 411 34,600 660 Climbing Cleveland Center
05:32PM 42.3483 -78.5378 285° West 362 417 35,300 600 Climbing Cleveland Center
05:33PM 42.3756 -78.6747 285° West 375 432 35,800 300 Climbing Cleveland Center
05:34PM 42.4031 -78.8172 285° West 380 437 36,000 60 Climbing Cleveland Center
05:35PM 42.4300 -78.9656 284° West 392 451 36,000  Level Cleveland Center
05:36PM 42.4614 -79.1142 286° West 407 468 36,000  Level Cleveland Center
05:37PM 42.4881 -79.2683 283° West 414 476 36,000  Level Cleveland Center
05:38PM 42.5003 -79.4172 276° West 414 476 36,000  Level Cleveland Center
05:39PM 42.5036 -79.5608 272° West 401 461 36,000  Level Cleveland Center
05:40PM 42.5111 -79.7017 274° West 388 447 36,000  Level Cleveland Center
05:41PM 42.5225 -79.8481 276° West 382 440 36,000  Level Cleveland Center
05:42PM 42.5256 -80.0056 272° West 382 440 36,000  Level Cleveland Center
05:43PM 42.5303 -80.1408 273° West 375 432 36,000  Level Cleveland Center
05:44PM 42.5369 -80.2817 274° West 375 432 36,000  Level Cleveland Center
05:45PM 42.5433 -80.4225 274° West 370 426 36,000  Level Cleveland Center
05:46PM 42.5478 -80.5578 273° West 365 420 36,000  Level Cleveland Center
05:47PM 42.5539 -80.6903 274° West 365 420 36,000  Level Cleveland Center
05:48PM 42.5578 -80.8283 272° West 365 420 36,000  Level Cleveland Center
05:49PM 42.5639 -80.9639 274° West 365 420 36,000  Level Cleveland Center
05:50PM 42.5694 -81.0992 273° West 359 413 36,000  Level Cleveland Center
05:51PM 42.5750 -81.2344 273° West 359 413 36,000  Level Cleveland Center
05:52PM 42.5764 -81.3558 271° West 359 413 36,000  Level Cleveland Center
05:53PM 42.5878 -81.4911 277° West 368 423 36,000  Level Cleveland Center
05:54PM 42.6158 -81.6328 285° West 373 429 36,000  Level Cleveland Center
05:55PM 42.6414 -81.7911 282° West 393 452 36,000  Level Cleveland Center
05:56PM 42.6689 -81.9414 284° West 398 458 36,000  Level Cleveland Center
05:57PM 42.6942 -82.0917 283° West 398 458 36,000  Level Cleveland Center
05:58PM 42.7192 -82.2364 283° West 398 458 36,000  Level Cleveland Center
05:59PM 42.7442 -82.3783 284° West 393 452 36,000  Level Cleveland Center
06:00PM 42.7814 -82.5239 289° West 393 452 36,000  Level Cleveland Center
06:01PM 42.8669 -82.6483 313° West 420 483 36,000  Level Cleveland Center
06:02PM 42.9519 -82.7758 312° West 439 505 36,000 -480 Level Cleveland Center
06:03PM 43.0392 -82.8983 314° West 453 521 35,100 -1,260 Descending Cleveland Center
06:04PM 43.1178 -83.0378 308° West 460 529 33,500 -1,500 Descending Cleveland Center
06:05PM 43.1208 -83.1828 272° West 397 457 32,100 -780 Descending Cleveland Center
06:06PM 43.0844 -83.3122 249° West 357 411 32,000 -60 Descending Cleveland Center
06:07PM 43.0478 -83.4442 249° West 363 418 32,000  Level Cleveland Center
06:08PM 43.0111 -83.5817 250° West 380 437 32,000  Level Cleveland Center
06:09PM 42.9739 -83.7217 250° West 392 451 32,000  Level Cleveland Center
06:10PM 42.9508 -83.8736 258° West 392 451 32,000  Level Cleveland Center
06:11PM 42.9381 -84.0292 264° West 412 474 32,000  Level Cleveland Center
06:12PM 42.9228 -84.1900 263° West 420 483 32,000  Level Cleveland Center
06:13PM 42.9094 -84.3422 263° West 426 490 32,000  Level Cleveland Center
06:14PM 42.8897 -84.5025 261° West 426 490 32,000  Level Cleveland Center
06:16PM 42.8692 -84.7286 263° West 426 490 32,000 -180 Level Chicago Center
06:17PM 42.8519 -84.8892 262° West 429 494 31,600 -960 Descending Chicago Center
06:18PM 42.8361 -85.0475 262° West 423 487 30,100 -1,440 Descending Chicago Center
06:19PM 42.8186 -85.2056 261° West 423 487 28,600 -1,140 Descending Chicago Center
06:20PM 42.7972 -85.4000 262° West 431 496 27,800 -1,200 Descending Chicago Center
06:21PM 42.7750 -85.5647 260° West 439 505 26,200 -1,620 Descending Chicago Center
06:22PM 42.7453 -85.7264 256° West 439 505 24,500 -1,680 Descending Chicago Center
06:23PM 42.7161 -85.8861 256° West 435 501 22,800 -1,260 Descending Chicago Center
06:24PM 42.6878 -86.0442 256° West 430 495 22,000 -1,020 Descending Chicago Center
06:25PM 42.6603 -86.1944 256° West 416 479 20,700 -1,020 Descending Chicago Center
06:26PM 42.6339 -86.3336 256° West 387 445 20,000 -900 Descending Chicago Center
06:27PM 42.6028 -86.4936 255° West 366 421 18,900 -1,320 Descending Chicago Center
06:28PM 42.5786 -86.6258 256° West 363 418 17,300 -1,680 Descending Chicago Center
06:29PM 42.5528 -86.7622 256° West 373 429 15,500 -1,620 Descending Chicago Center
06:30PM 42.5183 -86.8847 249° West 351 404 14,000 -1,380 Descending Chicago Center
06:31PM 42.4875 -86.9958 249° West 321 369 12,700 -1,200 Descending Chicago Center
06:32PM 42.4583 -87.1003 249° West 299 344 11,600 -1,200 Descending Chicago Center
06:33PM 42.4231 -87.2294 250° West 306 352 10,200 -780 Descending Chicago Center
06:34PM 42.3939 -87.3319 249° West 296 341 10,000 -120 Descending Chicago Center
06:35PM 42.3678 -87.4275 250° West 296 341 10,000 -780 Level Chicago Center
06:36PM 42.3297 -87.5481 247° West 294 338 8,400 -1,380 Descending Chicago Center
06:37PM 42.2667 -87.6122 217° Southwest 286 329 7,200 -720 Descending Chicago Center
06:38PM 42.2069 -87.6750 218° Southwest 277 319 7,000 -120 Descending Chicago Center
06:40PM 42.1467 -87.7386 218° Southwest 276 318 7,000  Level Chicago Center
06:41PM 42.1033 -87.8169 233° Southwest 276 318 7,000  Level Chicago Center
06:42PM 42.0678 -87.9228 246° West 259 298 7,000  Level Chicago Center
06:43PM 42.0628 -87.9997 265° West 212 244 7,000 -240 Level Chicago Center
06:44PM 42.0667 -88.0833 274° West 203 234 6,600 -660 Descending Chicago TRACON
06:45PM 42.0567 -88.1494 259° West 204 235 5,700 -960 Descending Chicago Center
06:46PM 42.0519 -88.2236 265° West 203 234 4,800 -840 Descending Chicago Center
06:47PM 42.0167 -88.2889 234° Southwest 221 254 4,000 -420 Descending Chicago Center
06:48PM 41.9817 -88.2392 133° Southeast 209 241 4,000  Level Chicago Center
06:49PM 41.9661 -88.1781 109° East 187 215 4,000  Level Chicago Center